Time;durP1;ratioP1;P1;durP2;ratioP2;P2;SDS_P1;SDS_P2;PMS_P1;PMS_P2;Temp;Humidity;BMP_temperature;BMP_pressure;BME280_temperature;BME280_humidity;BME280_pressure;Samples;Min_cycle;Max_cycle;Signal;HPM_P1;HPM_P2
2023/08/09 00:02:27;;;;;;;0.10;0.10;;;;;;;14.73;100.00;98848.91;5096008;28;20229;-57
2023/08/09 00:05:14;;;;;;;0.10;0.10;;;;;;;14.85;100.00;98848.69;5095795;28;20267;-56
2023/08/09 00:08:00;;;;;;;0.10;0.10;;;;;;;14.79;100.00;98845.75;5095754;28;20198;-57
2023/08/09 00:10:47;;;;;;;0.20;0.20;;;;;;;14.65;100.00;98851.41;5094713;28;20249;-56
2023/08/09 00:13:34;;;;;;;0.10;0.10;;;;;;;14.59;100.00;98853.63;5095743;28;20329;-57
2023/08/09 00:16:21;;;;;;;0.10;0.10;;;;;;;14.50;100.00;98856.22;5095695;28;20195;-57
2023/08/09 00:19:10;;;;;;;0.13;0.13;;;;;;;14.45;100.00;98850.44;5095621;28;20304;-57
2023/08/09 00:21:57;;;;;;;0.10;0.10;;;;;;;14.42;100.00;98856.84;5095726;28;20190;-56
2023/08/09 00:24:44;;;;;;;0.10;0.10;;;;;;;14.46;100.00;98850.28;5094224;28;20241;-56
2023/08/09 00:27:31;;;;;;;0.10;0.10;;;;;;;14.48;100.00;98847.53;5095046;28;20194;-57
2023/08/09 00:30:19;;;;;;;0.10;0.10;;;;;;;14.51;100.00;98856.09;5094465;28;20187;-57
2023/08/09 00:33:05;;;;;;;0.10;0.10;;;;;;;14.48;100.00;98848.38;5094163;28;20746;-57
2023/08/09 00:35:54;;;;;;;0.10;0.10;;;;;;;14.55;100.00;98852.19;5095443;28;20389;-57
2023/08/09 00:38:41;;;;;;;0.10;0.10;;;;;;;14.52;100.00;98844.47;5094211;28;20203;-56
2023/08/09 00:41:28;;;;;;;0.10;0.10;;;;;;;14.42;100.00;98842.69;5094032;28;20195;-56
2023/08/09 00:44:15;;;;;;;0.10;0.10;;;;;;;14.38;100.00;98849.22;5095303;28;20201;-56
2023/08/09 00:47:02;;;;;;;0.10;0.10;;;;;;;14.40;100.00;98855.28;5095156;28;20198;-56
2023/08/09 00:49:50;;;;;;;0.10;0.10;;;;;;;14.55;100.00;98862.84;5094841;28;20674;-56
2023/08/09 00:52:38;;;;;;;0.10;0.10;;;;;;;14.52;100.00;98851.59;5094060;28;20191;-57
2023/08/09 00:55:25;;;;;;;0.10;0.10;;;;;;;14.48;100.00;98850.19;5093746;28;20198;-57
2023/08/09 00:58:12;;;;;;;0.10;0.10;;;;;;;14.46;100.00;98846.78;5094848;28;20198;-57
2023/08/09 01:00:59;;;;;;;0.10;0.10;;;;;;;14.62;100.00;98844.50;5094948;28;20253;-56
2023/08/09 01:03:46;;;;;;;0.10;0.10;;;;;;;14.44;100.00;98841.56;5094881;28;20314;-57
2023/08/09 01:06:42;;;;;;;0.10;0.10;;;;;;;14.43;100.00;98839.88;5094602;28;20209;-56
2023/08/09 01:09:36;;;;;;;0.20;0.20;;;;;;;14.48;100.00;98837.72;5093431;28;20191;-57
2023/08/09 01:12:29;;;;;;;0.10;0.10;;;;;;;14.51;100.00;98849.91;5093644;28;20191;-57
2023/08/09 01:15:19;;;;;;;0.00;0.00;;;;;;;14.64;100.00;98849.72;5093679;28;20194;-56
2023/08/09 01:18:08;;;;;;;0.10;0.10;;;;;;;14.64;100.00;98842.56;5094498;28;20305;-56
2023/08/09 01:20:55;;;;;;;0.10;0.10;;;;;;;14.77;100.00;98847.69;5094066;28;20717;-57
2023/08/09 01:23:44;;;;;;;0.10;0.10;;;;;;;14.79;100.00;98835.06;5094438;28;20214;-57
2023/08/09 01:26:30;;;;;;;0.10;0.10;;;;;;;14.92;100.00;98838.34;5094321;28;20211;-57
2023/08/09 01:29:17;;;;;;;0.10;0.10;;;;;;;14.96;100.00;98842.47;5094197;28;20198;-57
2023/08/09 01:32:04;;;;;;;0.10;0.10;;;;;;;15.03;100.00;98826.75;5094372;28;20183;-57
2023/08/09 01:34:51;;;;;;;0.10;0.10;;;;;;;14.93;100.00;98825.88;5094252;28;20195;-57
2023/08/09 01:37:43;;;;;;;0.10;0.10;;;;;;;14.84;100.00;98831.00;5094103;28;20222;-57
2023/08/09 01:40:32;;;;;;;0.10;0.10;;;;;;;14.92;100.00;98832.19;5092264;28;20222;-57
2023/08/09 01:43:22;;;;;;;0.10;0.10;;;;;;;14.88;100.00;98823.59;5093091;28;20542;-56
2023/08/09 01:46:12;;;;;;;0.10;0.10;;;;;;;14.94;100.00;98832.88;5093883;28;20195;-57
2023/08/09 01:49:10;;;;;;;0.10;0.10;;;;;;;14.94;100.00;98828.38;5093980;28;20695;-57
2023/08/09 01:51:57;;;;;;;0.10;0.10;;;;;;;14.94;100.00;98838.22;5092948;28;20237;-57
2023/08/09 01:54:44;;;;;;;0.10;0.10;;;;;;;14.91;100.00;98828.66;5092619;28;20198;-57
2023/08/09 01:57:33;;;;;;;0.00;0.00;;;;;;;14.92;100.00;98826.84;5092785;28;20272;-56
2023/08/09 02:00:22;;;;;;;0.10;0.10;;;;;;;14.97;100.00;98836.16;5092488;28;20249;-57
2023/08/09 02:03:09;;;;;;;0.10;0.10;;;;;;;15.06;100.00;98824.66;5093741;28;20190;-56
2023/08/09 02:05:56;;;;;;;0.10;0.10;;;;;;;15.05;100.00;98833.63;5092269;28;20271;-57
2023/08/09 02:08:43;;;;;;;0.10;0.10;;;;;;;15.20;100.00;98828.78;5092598;28;20693;-57
2023/08/09 02:11:31;;;;;;;0.10;0.10;;;;;;;15.26;100.00;98822.91;5093525;28;20191;-57
2023/08/09 02:14:20;;;;;;;0.10;0.10;;;;;;;15.23;100.00;98828.50;5092513;28;20202;-57
2023/08/09 02:17:09;;;;;;;0.10;0.10;;;;;;;15.27;100.00;98835.28;5092584;28;20198;-57
2023/08/09 02:19:56;;;;;;;0.10;0.10;;;;;;;15.35;100.00;98821.25;5093357;28;20257;-57
2023/08/09 02:22:44;;;;;;;0.10;0.10;;;;;;;15.29;100.00;98816.44;5093416;28;20266;-56
2023/08/09 02:25:31;;;;;;;0.10;0.10;;;;;;;15.37;100.00;98814.78;5092132;28;20225;-56
2023/08/09 02:28:18;;;;;;;0.10;0.10;;;;;;;15.34;100.00;98816.88;5093299;28;20210;-56
2023/08/09 02:31:08;;;;;;;0.10;0.10;;;;;;;15.32;100.00;98811.66;5093511;28;20199;-56
2023/08/09 02:33:55;;;;;;;0.10;0.10;;;;;;;15.38;100.00;98803.13;5093184;28;20202;-57
2023/08/09 02:36:42;;;;;;;0.10;0.10;;;;;;;15.37;100.00;98816.63;5093229;28;20195;-56
2023/08/09 02:39:29;;;;;;;0.10;0.10;;;;;;;15.31;100.00;98807.31;5091683;28;20256;-56
2023/08/09 02:42:16;;;;;;;0.10;0.10;;;;;;;15.32;100.00;98816.16;5092020;28;20195;-56
2023/08/09 02:45:03;;;;;;;0.10;0.10;;;;;;;15.27;100.00;98807.75;5092094;28;20202;-56
2023/08/09 02:47:53;;;;;;;0.10;0.10;;;;;;;15.27;100.00;98807.75;5092970;28;20563;-57
2023/08/09 02:50:41;;;;;;;0.10;0.10;;;;;;;15.24;100.00;98803.50;5092616;28;20187;-56
2023/08/09 02:53:33;;;;;;;0.10;0.10;;;;;;;15.24;100.00;98813.31;5092022;28;20214;-57
2023/08/09 02:56:19;;;;;;;0.10;0.10;;;;;;;15.24;100.00;98813.31;5092948;28;20195;-56
2023/08/09 02:59:07;;;;;;;0.10;0.10;;;;;;;15.17;100.00;98813.91;5091860;28;20198;-56
2023/08/09 03:01:54;;;;;;;0.10;0.10;;;;;;;15.16;100.00;98819.38;5092957;28;20194;-57
2023/08/09 03:04:42;;;;;;;0.10;0.10;;;;;;;15.16;100.00;98822.88;5091715;28;20234;-57
2023/08/09 03:07:29;;;;;;;0.10;0.10;;;;;;;15.16;100.00;98822.03;5092622;28;20265;-56
2023/08/09 03:10:16;;;;;;;0.10;0.10;;;;;;;15.16;100.00;98825.53;5090557;28;20186;-57
2023/08/09 03:13:03;;;;;;;0.10;0.10;;;;;;;15.18;100.00;98828.91;5092848;28;20261;-56
2023/08/09 03:15:51;;;;;;;0.10;0.10;;;;;;;15.20;100.00;98834.13;5091711;28;20197;-56
2023/08/09 03:18:38;;;;;;;0.10;0.10;;;;;;;15.19;100.00;98837.75;5092658;28;20195;-57
2023/08/09 03:21:27;;;;;;;0.10;0.10;;;;;;;15.22;100.00;98832.16;5091543;28;20223;-56
2023/08/09 03:24:14;;;;;;;0.10;0.10;;;;;;;15.22;100.00;98837.47;5090261;28;20195;-56
2023/08/09 03:27:02;;;;;;;0.10;0.10;;;;;;;15.19;100.00;98835.09;5091786;28;20241;-56
2023/08/09 03:29:49;;;;;;;0.10;0.10;;;;;;;15.22;100.00;98847.31;5091756;28;20199;-56
2023/08/09 03:32:37;;;;;;;0.10;0.10;;;;;;;15.20;100.00;98834.13;5092424;28;20241;-56
2023/08/09 03:35:24;;;;;;;0.10;0.10;;;;;;;15.20;100.00;98834.13;5091662;28;20256;-56
2023/08/09 03:38:13;;;;;;;0.10;0.10;;;;;;;15.20;100.00;98847.47;5092573;28;20218;-56
2023/08/09 03:41:00;;;;;;;0.10;0.10;;;;;;;15.17;100.00;98847.72;5090026;28;20264;-56
2023/08/09 03:43:48;;;;;;;0.10;0.10;;;;;;;15.17;100.00;98848.56;5091395;28;20203;-56
2023/08/09 03:46:36;;;;;;;0.10;0.10;;;;;;;15.17;100.00;98850.41;5091420;28;20187;-56
2023/08/09 03:49:24;;;;;;;0.10;0.10;;;;;;;15.17;100.00;98858.41;5091480;28;20195;-56
2023/08/09 03:52:11;;;;;;;0.10;0.10;;;;;;;15.21;100.00;98857.16;5091446;28;20671;-56
2023/08/09 03:54:59;;;;;;;0.10;0.10;;;;;;;15.26;100.00;98867.44;5090055;28;20215;-56
2023/08/09 03:57:46;;;;;;;0.10;0.10;;;;;;;15.24;100.00;98870.22;5091326;28;20195;-56
2023/08/09 04:00:34;;;;;;;0.10;0.10;;;;;;;15.23;100.00;98870.34;5091178;28;20222;-57
2023/08/09 04:03:21;;;;;;;0.10;0.10;;;;;;;15.25;100.00;98871.03;5095202;28;20222;-56
2023/08/09 04:06:09;;;;;;;0.10;0.10;;;;;;;15.24;100.00;98867.53;5095579;28;20225;-57
2023/08/09 04:08:56;;;;;;;0.10;0.10;;;;;;;15.22;100.00;98861.50;5094763;28;20266;-56
2023/08/09 04:11:44;;;;;;;0.10;0.10;;;;;;;15.26;100.00;98873.59;5095834;28;20190;-56
2023/08/09 04:14:31;;;;;;;0.10;0.10;;;;;;;15.30;100.00;98868.84;5095911;28;20195;-56
2023/08/09 04:17:17;;;;;;;0.10;0.10;;;;;;;15.26;100.00;98881.63;5095723;28;20229;-56
2023/08/09 04:20:09;;;;;;;0.10;0.10;;;;;;;15.32;100.00;98910.41;5095782;28;20619;-57
2023/08/09 04:22:55;;;;;;;0.10;0.10;;;;;;;14.99;100.00;98916.03;5094610;28;20202;-56
2023/08/09 04:25:42;;;;;;;0.10;0.10;;;;;;;15.04;100.00;98919.97;5094271;28;20308;-57
2023/08/09 04:28:31;;;;;;;0.10;0.10;;;;;;;14.81;100.00;98913.09;5095592;28;20191;-57
2023/08/09 04:31:17;;;;;;;0.10;0.10;;;;;;;14.76;100.00;98921.47;5095500;28;20198;-56
2023/08/09 04:34:05;;;;;;;0.10;0.10;;;;;;;14.62;100.00;98919.16;5095586;28;20203;-57
2023/08/09 04:36:52;;;;;;;0.10;0.10;;;;;;;14.82;100.00;98917.47;5095250;28;20195;-57
2023/08/09 04:39:39;;;;;;;0.10;0.10;;;;;;;14.65;100.00;98929.53;5094070;28;20674;-57
2023/08/09 04:42:27;;;;;;;0.10;0.10;;;;;;;14.74;100.00;98931.44;5095001;28;20752;-57
2023/08/09 04:45:15;;;;;;;0.10;0.10;;;;;;;14.67;100.00;98930.28;5095420;28;20237;-57
2023/08/09 04:48:03;;;;;;;0.10;0.10;;;;;;;14.57;100.00;98927.56;5095206;28;20252;-57
2023/08/09 04:50:49;;;;;;;0.10;0.10;;;;;;;14.57;100.00;98932.88;5094329;28;20186;-56
2023/08/09 04:53:40;;;;;;;0.10;0.10;;;;;;;14.87;100.00;98932.09;5094638;28;20195;-57
2023/08/09 04:56:27;;;;;;;0.10;0.10;;;;;;;14.74;100.00;98930.59;5095062;28;20309;-57
2023/08/09 04:59:14;;;;;;;0.00;0.00;;;;;;;14.76;100.00;98934.81;5094059;28;20187;-57
2023/08/09 05:02:05;;;;;;;0.10;0.10;;;;;;;14.78;100.00;98940.88;5094525;28;20713;-56
2023/08/09 05:04:52;;;;;;;0.10;0.10;;;;;;;14.59;100.00;98936.25;5094644;28;20347;-57
2023/08/09 05:07:40;;;;;;;0.10;0.10;;;;;;;14.51;100.00;98944.03;5094745;28;20194;-57
2023/08/09 05:10:27;;;;;;;0.10;0.10;;;;;;;14.59;100.00;98948.75;5092905;28;20758;-57
2023/08/09 05:13:14;;;;;;;0.10;0.10;;;;;;;14.58;100.00;98944.38;5094737;28;20687;-57
2023/08/09 05:16:00;;;;;;;0.10;0.10;;;;;;;14.58;100.00;98955.03;5094586;28;20190;-57
2023/08/09 05:18:49;;;;;;;0.10;0.10;;;;;;;14.68;100.00;98968.44;5094369;28;20222;-57
2023/08/09 05:21:35;;;;;;;0.10;0.10;;;;;;;14.67;100.00;98974.72;5094302;28;20333;-56
2023/08/09 05:24:22;;;;;;;0.10;0.10;;;;;;;14.72;100.00;98977.88;5092985;28;20543;-56
2023/08/09 05:27:09;;;;;;;0.10;0.10;;;;;;;14.72;100.00;98985.88;5094127;28;20333;-56
2023/08/09 05:29:56;;;;;;;0.10;0.10;;;;;;;14.63;100.00;98982.16;5094299;28;20216;-56
2023/08/09 05:32:43;;;;;;;0.10;0.10;;;;;;;14.59;100.00;98994.06;5094238;28;20318;-57
2023/08/09 05:35:31;;;;;;;0.10;0.10;;;;;;;14.67;100.00;99018.25;5094058;28;20714;-57
2023/08/09 05:38:18;;;;;;;0.10;0.10;;;;;;;14.49;100.00;98993.13;5094358;28;20736;-57
2023/08/09 05:41:05;;;;;;;0.10;0.10;;;;;;;14.44;100.00;98992.63;5093552;28;20198;-56
2023/08/09 05:43:52;;;;;;;0.10;0.10;;;;;;;14.49;100.00;99009.13;5093470;28;20293;-56
2023/08/09 05:46:38;;;;;;;0.10;0.10;;;;;;;14.67;100.00;99023.59;5094163;28;20219;-56
2023/08/09 05:49:25;;;;;;;0.10;0.10;;;;;;;14.71;100.00;99027.69;5093996;28;20261;-57
2023/08/09 05:52:14;;;;;;;0.10;0.10;;;;;;;14.61;100.00;99024.09;5092386;28;20191;-57
2023/08/09 05:55:01;;;;;;;0.10;0.10;;;;;;;14.93;100.00;99036.56;5092588;28;20260;-56
2023/08/09 05:57:48;;;;;;;0.10;0.10;;;;;;;14.79;100.00;99030.56;5092905;28;20670;-57
2023/08/09 06:00:35;;;;;;;0.10;0.10;;;;;;;14.79;100.00;99035.06;5093623;28;21044;-57
2023/08/09 06:03:22;;;;;;;0.10;0.10;;;;;;;14.97;100.00;99043.34;5093500;28;20217;-56
2023/08/09 06:06:11;;;;;;;0.10;0.10;;;;;;;15.05;100.00;99046.19;5093294;28;20239;-57
2023/08/09 06:08:59;;;;;;;0.10;0.10;;;;;;;14.99;100.00;99039.56;5092321;28;20203;-56
2023/08/09 06:11:46;;;;;;;0.10;0.10;;;;;;;15.02;100.00;99033.09;5093570;28;20194;-57
2023/08/09 06:14:34;;;;;;;0.10;0.10;;;;;;;14.98;100.00;99024.53;5093601;28;20296;-57
2023/08/09 06:17:21;;;;;;;0.10;0.10;;;;;;;14.98;100.00;99010.34;5093284;28;20194;-57
2023/08/09 06:20:08;;;;;;;0.10;0.10;;;;;;;15.11;100.00;99003.84;5093431;28;20264;-57
2023/08/09 06:22:55;;;;;;;0.10;0.10;;;;;;;15.28;100.00;98989.06;5093153;28;20295;-57
2023/08/09 06:25:43;;;;;;;0.10;0.10;;;;;;;15.17;100.00;98991.81;5091497;28;20240;-57
2023/08/09 06:28:30;;;;;;;0.10;0.10;;;;;;;15.16;100.00;99000.78;5093298;28;20199;-57
2023/08/09 06:31:17;;;;;;;0.10;0.10;;;;;;;15.17;100.00;98986.47;5093215;28;20207;-57
2023/08/09 06:34:04;;;;;;;0.10;0.10;;;;;;;15.19;100.00;98992.50;5093129;28;20277;-57
2023/08/09 06:36:51;;;;;;;0.10;0.10;;;;;;;15.12;100.00;99005.53;5093095;28;20202;-57
2023/08/09 06:39:39;;;;;;;0.10;0.10;;;;;;;15.51;100.00;98999.56;5091848;28;20205;-57
2023/08/09 06:42:27;;;;;;;0.00;0.00;;;;;;;15.60;100.00;98998.75;5092756;28;20222;-57
2023/08/09 06:45:18;;;;;;;0.10;0.10;;;;;;;15.80;100.00;98991.69;5092176;28;20202;-57
2023/08/09 06:48:07;;;;;;;0.10;0.10;;;;;;;15.92;100.00;98980.78;5093091;28;20276;-57
2023/08/09 06:50:55;;;;;;;0.10;0.10;;;;;;;16.11;100.00;98969.28;5092874;28;20198;-57
2023/08/09 06:53:42;;;;;;;0.10;0.10;;;;;;;16.14;100.00;98955.66;5091523;28;20267;-57
2023/08/09 06:56:29;;;;;;;0.10;0.10;;;;;;;16.10;100.00;98958.75;5093080;28;20213;-57
2023/08/09 06:59:17;;;;;;;0.10;0.10;;;;;;;16.43;100.00;98952.19;5092848;28;20249;-57
2023/08/09 07:02:04;;;;;;;0.10;0.10;;;;;;;16.52;100.00;98959.34;5092843;28;20678;-57
2023/08/09 07:04:54;;;;;;;0.10;0.10;;;;;;;16.90;100.00;98946.97;5092660;28;20242;-57
2023/08/09 07:07:42;;;;;;;0.10;0.10;;;;;;;17.27;100.00;98944.31;5092763;28;20738;-57
2023/08/09 07:10:29;;;;;;;0.10;0.10;;;;;;;17.05;100.00;98954.38;5091416;28;20199;-57
2023/08/09 07:13:15;;;;;;;0.10;0.10;;;;;;;17.36;100.00;98956.84;5092719;28;20682;-57
2023/08/09 07:16:04;;;;;;;0.10;0.10;;;;;;;17.51;100.00;98955.38;5092776;28;20241;-56
2023/08/09 07:18:51;;;;;;;0.10;0.10;;;;;;;17.67;100.00;98958.28;5092731;28;20222;-57
2023/08/09 07:21:38;;;;;;;0.10;0.10;;;;;;;17.92;100.00;98966.63;5092577;28;20272;-57
2023/08/09 07:24:25;;;;;;;0.00;0.00;;;;;;;17.77;100.00;98973.50;5091279;28;20190;-57
2023/08/09 07:27:12;;;;;;;0.10;0.10;;;;;;;17.63;100.00;98975.63;5092666;28;20191;-57
2023/08/09 07:29:59;;;;;;;0.10;0.10;;;;;;;17.93;100.00;98974.53;5092852;28;20210;-57
2023/08/09 07:32:47;;;;;;;0.10;0.10;;;;;;;18.08;100.00;98969.50;5092632;28;20199;-57
2023/08/09 07:35:34;;;;;;;0.10;0.10;;;;;;;18.21;100.00;98974.50;5092531;28;20191;-56
2023/08/09 07:38:21;;;;;;;0.10;0.10;;;;;;;18.47;100.00;98983.50;5095629;28;20191;-57
2023/08/09 07:41:09;;;;;;;0.10;0.10;;;;;;;18.54;100.00;98978.38;5096579;28;20244;-56
2023/08/09 07:43:56;;;;;;;0.10;0.10;;;;;;;18.53;100.00;98984.75;5096180;28;20253;-57
2023/08/09 07:46:43;;;;;;;0.10;0.10;;;;;;;18.50;100.00;98983.19;5096450;28;20187;-57
2023/08/09 07:49:31;;;;;;;0.10;0.10;;;;;;;18.36;100.00;98980.19;5096309;28;20194;-57
2023/08/09 07:52:18;;;;;;;0.10;0.10;;;;;;;18.48;100.00;98987.03;5096339;28;20191;-56
2023/08/09 07:55:06;;;;;;;0.10;0.10;;;;;;;18.53;100.00;98992.78;5094955;28;20226;-57
2023/08/09 07:57:53;;;;;;;0.10;0.10;;;;;;;18.37;100.00;99003.34;5096228;28;20214;-57
2023/08/09 08:00:39;;;;;;;0.10;0.10;;;;;;;18.47;100.00;99010.31;5096260;28;20241;-56
2023/08/09 08:03:36;;;;;;;0.10;0.10;;;;;;;18.54;100.00;99018.63;5095578;28;20211;-57
2023/08/09 08:06:24;;;;;;;0.10;0.10;;;;;;;18.79;100.00;99027.75;5095581;28;20223;-57
2023/08/09 08:09:13;;;;;;;0.10;0.10;;;;;;;18.55;100.00;99036.41;5094688;28;20203;-56
2023/08/09 08:12:00;;;;;;;0.10;0.10;;;;;;;18.70;100.00;99028.69;5095767;28;20202;-56
2023/08/09 08:15:00;;;;;;;0.10;0.10;;;;;;;18.59;100.00;99038.59;5095793;28;20193;-56
2023/08/09 08:17:48;;;;;;;0.10;0.10;;;;;;;18.97;100.00;99039.34;5095795;28;20260;-56
2023/08/09 08:20:35;;;;;;;0.10;0.10;;;;;;;18.07;100.00;99042.88;5095573;28;20211;-56
2023/08/09 08:23:23;;;;;;;0.10;0.10;;;;;;;18.63;100.00;99039.16;5095371;28;20713;-56
2023/08/09 08:26:10;;;;;;;0.10;0.10;;;;;;;18.98;100.00;99037.50;5094675;28;20310;-56
2023/08/09 08:28:57;;;;;;;0.10;0.10;;;;;;;19.48;100.00;99037.72;5095567;28;20721;-56
2023/08/09 08:31:44;;;;;;;0.10;0.10;;;;;;;19.63;100.00;99033.47;5095585;28;20324;-57
2023/08/09 08:34:32;;;;;;;0.10;0.10;;;;;;;19.65;100.00;99038.69;5095486;28;20646;-56
2023/08/09 08:37:19;;;;;;;0.10;0.10;;;;;;;19.50;100.00;99042.94;5095374;28;20195;-56
2023/08/09 08:40:14;;;;;;;0.10;0.10;;;;;;;19.11;100.00;99046.84;5094154;28;20198;-57
2023/08/09 08:43:01;;;;;;;0.10;0.10;;;;;;;19.48;100.00;99044.91;5094998;28;20227;-57
2023/08/09 08:45:50;;;;;;;0.10;0.10;;;;;;;19.57;100.00;99035.94;5093858;28;20202;-56
2023/08/09 08:48:37;;;;;;;0.10;0.10;;;;;;;19.22;100.00;99042.25;5094749;28;20191;-56
2023/08/09 08:51:26;;;;;;;0.10;0.10;;;;;;;18.85;100.00;99040.56;5095029;28;20234;-57
2023/08/09 08:54:13;;;;;;;0.10;0.10;;;;;;;19.72;100.00;99050.50;5093826;28;20187;-56
2023/08/09 08:57:01;;;;;;;0.10;0.10;;;;;;;19.65;100.00;99049.44;5095008;28;20721;-56
2023/08/09 08:59:49;;;;;;;0.10;0.10;;;;;;;19.76;100.00;99051.84;5095005;28;20195;-56
2023/08/09 09:02:36;;;;;;;0.10;0.10;;;;;;;20.33;100.00;99049.44;5094959;28;20225;-57
2023/08/09 09:05:23;;;;;;;0.10;0.10;;;;;;;20.97;100.00;99047.09;5094559;28;20714;-56
2023/08/09 09:08:13;;;;;;;0.10;0.10;;;;;;;21.41;100.00;99056.53;5094699;28;20191;-56
2023/08/09 09:10:59;;;;;;;0.10;0.10;;;;;;;21.41;100.00;99045.75;5094231;28;20191;-57
2023/08/09 09:13:50;;;;;;;0.10;0.10;;;;;;;21.45;100.00;99050.81;5094847;28;20233;-57
2023/08/09 09:16:37;;;;;;;0.10;0.10;;;;;;;21.90;100.00;99037.56;5094468;28;20202;-57
2023/08/09 09:19:25;;;;;;;0.10;0.10;;;;;;;22.04;100.00;99038.69;5094579;28;20191;-57
2023/08/09 09:22:26;;;;;;;0.00;0.00;;;;;;;22.14;100.00;99036.66;5094605;28;20249;-57
2023/08/09 09:25:17;;;;;;;0.00;0.00;;;;;;;21.31;97.12;99036.16;5093088;28;20253;-57
2023/08/09 09:28:05;;;;;;;0.10;0.10;;;;;;;21.97;90.11;99037.72;5094492;28;20195;-57
2023/08/09 09:30:59;;;;;;;0.10;0.10;;;;;;;22.39;93.14;99032.00;5094434;28;20210;-57
2023/08/09 09:33:49;;;;;;;0.10;0.10;;;;;;;22.71;84.98;99030.97;5094324;28;20257;-57
2023/08/09 09:36:38;;;;;;;0.10;0.10;;;;;;;22.21;90.11;99034.13;5094291;28;20315;-57
2023/08/09 09:39:29;;;;;;;0.00;0.00;;;;;;;22.85;80.42;99035.63;5092977;28;20195;-57
2023/08/09 09:42:16;;;;;;;0.10;0.10;;;;;;;23.08;79.84;99026.69;5094150;28;20195;-57
2023/08/09 09:45:05;;;;;;;0.10;0.10;;;;;;;22.88;78.35;99026.34;5093736;28;20222;-57
2023/08/09 09:47:54;;;;;;;0.10;0.10;;;;;;;23.64;76.45;99036.16;5094057;28;20307;-57
2023/08/09 09:50:44;;;;;;;0.10;0.10;;;;;;;23.62;78.00;99037.34;5094023;28;20199;-57
2023/08/09 09:53:33;;;;;;;0.10;0.10;;;;;;;23.72;74.62;99029.81;5093385;28;20194;-57
2023/08/09 09:56:20;;;;;;;0.10;0.10;;;;;;;23.46;71.28;99040.22;5093701;28;20199;-57
2023/08/09 09:59:07;;;;;;;0.00;0.00;;;;;;;23.70;66.46;99030.00;5093597;28;20211;-57
2023/08/09 10:01:55;;;;;;;0.00;0.00;;;;;;;24.18;66.59;99035.03;5093918;28;20670;-57
2023/08/09 10:04:46;;;;;;;0.00;0.00;;;;;;;24.81;59.79;99034.38;5092172;28;20310;-57
2023/08/09 10:07:33;;;;;;;0.10;0.10;;;;;;;24.87;61.39;99026.47;5093692;28;20203;-57
2023/08/09 10:29:08;;;;;;;0.00;0.00;;;;;;;24.78;56.23;99036.59;5110105;27;20543;-56
2023/08/09 10:31:59;;;;;;;0.00;0.00;;;;;;;25.71;53.77;99041.03;5108578;28;20685;-56
2023/08/09 10:34:49;;;;;;;0.00;0.00;;;;;;;25.45;52.99;99038.09;5110561;28;20712;-57
2023/08/09 10:37:36;;;;;;;0.08;0.08;;;;;;;26.16;53.20;99042.34;5110210;28;20701;-56
2023/08/09 10:40:24;;;;;;;0.08;0.08;;;;;;;25.89;51.86;99041.38;5110410;28;20198;-56
2023/08/09 10:43:18;;;;;;;0.00;0.00;;;;;;;26.67;50.11;99032.97;5110339;28;20686;-57
2023/08/09 10:46:20;;;;;;;0.00;0.00;;;;;;;26.65;54.83;99040.50;5110187;28;20186;-57
2023/08/09 10:49:07;;;;;;;0.00;0.00;;;;;;;27.08;48.42;99039.13;5110025;28;20190;-56
2023/08/09 10:51:55;;;;;;;0.10;0.10;;;;;;;27.26;48.15;99046.69;5110316;28;20332;-56
2023/08/09 10:54:41;;;;;;;0.08;0.08;;;;;;;27.22;46.58;99048.16;5110174;28;20466;-56
2023/08/09 10:57:41;;;;;;;0.00;0.00;;;;;;;27.05;46.59;99047.72;5109768;28;20209;-56
2023/08/09 11:00:37;;;;;;;0.00;0.00;;;;;;;28.27;44.87;99046.34;5110116;28;20260;-56
2023/08/09 11:03:26;;;;;;;0.00;0.00;;;;;;;27.81;46.65;99043.78;5107596;28;20313;-56
2023/08/09 11:06:12;;;;;;;0.00;0.00;;;;;;;26.79;49.37;99051.19;5109978;28;20236;-56
2023/08/09 11:09:06;;;;;;;0.00;0.00;;;;;;;27.93;45.04;99064.69;5109942;28;20268;-56
2023/08/09 11:11:54;;;;;;;0.00;0.00;;;;;;;27.73;45.50;99071.22;5109819;28;20206;-56
2023/08/09 11:14:40;;;;;;;0.00;0.00;;;;;;;27.17;46.68;99069.69;5109842;28;20235;-57
2023/08/09 11:17:27;;;;;;;0.00;0.00;;;;;;;25.62;53.15;99064.72;5108173;28;20253;-56
2023/08/09 11:20:17;;;;;;;0.00;0.00;;;;;;;25.63;54.38;99071.84;5109603;28;20221;-56
2023/08/09 11:37:45;;;;;;;0.10;0.10;;;;;;;24.48;56.32;99071.91;5110174;27;21047;-56
2023/08/09 11:40:40;;;;;;;0.03;0.03;;;;;;;24.73;59.12;99074.28;5109376;28;20228;-56
2023/08/09 11:43:27;;;;;;;0.00;0.00;;;;;;;24.36;61.77;99068.00;5110585;28;20210;-56
2023/08/09 11:46:14;;;;;;;0.00;0.00;;;;;;;24.73;61.74;99077.00;5110338;28;20214;-56
2023/08/09 11:49:03;;;;;;;0.10;0.10;;;;;;;25.32;55.53;99079.50;5110593;28;20219;-56
2023/08/09 11:51:50;;;;;;;0.10;0.10;;;;;;;24.83;56.98;99077.53;5110226;28;20190;-56
2023/08/09 11:54:38;;;;;;;0.00;0.00;;;;;;;24.38;64.65;99084.88;5110283;28;20198;-56
2023/08/09 11:57:25;;;;;;;0.10;0.10;;;;;;;24.36;62.54;99080.69;5108907;28;20309;-57
2023/08/09 12:00:15;;;;;;;0.10;0.10;;;;;;;24.10;59.45;99081.13;5109788;28;20186;-56
2023/08/09 12:03:06;;;;;;;0.00;0.00;;;;;;;23.61;64.98;99079.78;5110135;28;20214;-56
2023/08/09 12:05:53;;;;;;;0.00;0.00;;;;;;;23.99;64.69;99091.41;5109900;28;20292;-56
2023/08/09 12:08:42;;;;;;;0.00;0.00;;;;;;;23.73;66.37;99082.88;5109989;28;20198;-57
2023/08/09 12:11:31;;;;;;;0.00;0.00;;;;;;;23.77;67.58;99086.91;5108705;28;20198;-56
2023/08/09 12:14:17;;;;;;;0.10;0.10;;;;;;;24.31;59.69;99086.66;5109869;28;20221;-56
2023/08/09 12:17:05;;;;;;;0.10;0.10;;;;;;;23.65;63.10;99088.41;5110070;28;20194;-57
2023/08/09 12:19:52;;;;;;;0.00;0.00;;;;;;;22.81;66.25;99085.59;5109968;28;20260;-56
2023/08/09 12:22:39;;;;;;;0.03;0.03;;;;;;;22.81;67.08;99093.69;5108578;28;20194;-56
2023/08/09 12:25:26;;;;;;;0.00;0.00;;;;;;;22.93;65.52;99096.00;5108426;28;20630;-56
2023/08/09 12:28:14;;;;;;;0.10;0.10;;;;;;;23.37;67.74;99094.34;5109710;28;20203;-56
2023/08/09 12:31:01;;;;;;;0.00;0.00;;;;;;;23.76;69.88;99101.47;5109394;28;20214;-56
2023/08/09 12:33:48;;;;;;;0.10;0.10;;;;;;;23.93;65.78;99094.88;5109527;28;20428;-56
2023/08/09 12:36:36;;;;;;;0.00;0.00;;;;;;;23.58;68.64;99096.34;5107564;28;20309;-57
2023/08/09 12:39:24;;;;;;;0.00;0.00;;;;;;;24.36;61.12;99103.19;5095660;28;20203;-56
2023/08/09 12:42:10;;;;;;;0.10;0.10;;;;;;;24.10;62.14;99100.09;5094537;28;20276;-57
2023/08/09 12:44:58;;;;;;;0.00;0.00;;;;;;;23.90;63.48;99103.34;5095841;28;20209;-56
2023/08/09 12:47:45;;;;;;;0.10;0.10;;;;;;;23.03;71.46;99104.72;5095092;28;20222;-56
2023/08/09 12:50:32;;;;;;;0.05;0.05;;;;;;;22.72;72.42;99110.97;5095701;28;20187;-56
2023/08/09 12:53:19;;;;;;;0.00;0.00;;;;;;;23.25;72.31;99109.28;5095635;28;20257;-56
2023/08/09 12:56:06;;;;;;;0.00;0.00;;;;;;;23.58;72.59;99117.16;5094089;28;20191;-56
2023/08/09 12:58:54;;;;;;;0.10;0.10;;;;;;;23.57;67.80;99120.88;5095494;28;20194;-56
2023/08/09 13:01:42;;;;;;;0.00;0.00;;;;;;;23.93;67.18;99116.50;5095545;28;20187;-56
2023/08/09 13:04:29;;;;;;;0.00;0.00;;;;;;;24.15;64.91;99116.63;5095219;28;20241;-56
2023/08/09 13:07:17;;;;;;;0.00;0.00;;;;;;;23.62;66.22;99107.66;5095200;28;20214;-56
2023/08/09 13:10:04;;;;;;;0.00;0.00;;;;;;;24.48;64.76;99123.34;5095239;28;20261;-56
2023/08/09 13:12:51;;;;;;;0.00;0.00;;;;;;;24.85;61.34;99113.38;5095162;28;20195;-56
2023/08/09 13:15:38;;;;;;;0.10;0.10;;;;;;;25.18;55.39;99124.63;5095238;28;20187;-57
2023/08/09 13:18:27;;;;;;;0.00;0.00;;;;;;;24.89;53.85;99124.69;5095227;28;20198;-56
2023/08/09 13:21:13;;;;;;;0.08;0.08;;;;;;;25.33;49.29;99124.56;5094856;28;20198;-56
2023/08/09 13:24:06;;;;;;;0.05;0.05;;;;;;;25.84;46.64;99119.81;5094923;28;20202;-56
2023/08/09 13:26:54;;;;;;;0.10;0.10;;;;;;;25.94;46.67;99114.88;5093431;28;20215;-56
2023/08/09 13:29:41;;;;;;;0.05;0.05;;;;;;;26.23;46.06;99129.28;5094785;28;20265;-56
2023/08/09 13:32:27;;;;;;;0.00;0.00;;;;;;;25.82;44.71;99119.19;5094923;28;20210;-56
2023/08/09 13:35:16;;;;;;;0.00;0.00;;;;;;;26.02;44.54;99122.03;5094898;28;20195;-56
2023/08/09 13:38:05;;;;;;;0.10;0.10;;;;;;;26.22;42.00;99116.72;5054360;28;20200;-56